sensor_id;sensor_type;location;lat;lon;timestamp;pressure;altitude;pressure_sealevel;temperature;humidity
5814;BME280;2933;52.302;8.134;2024-02-28T00:02:22;101179.56;;;-0.19;84.33
5814;BME280;2933;52.302;8.134;2024-02-28T00:07:25;101195.78;;;-0.09;84.22
5814;BME280;2933;52.302;8.134;2024-02-28T00:12:27;101186.06;;;-0.21;86.05
5814;BME280;2933;52.302;8.134;2024-02-28T00:17:29;101195.84;;;-0.35;86.45
5814;BME280;2933;52.302;8.134;2024-02-28T00:22:32;101180.22;;;-0.36;87.22
5814;BME280;2933;52.302;8.134;2024-02-28T00:27:34;101177.06;;;-0.01;86.06
5814;BME280;2933;52.302;8.134;2024-02-28T00:32:35;101180.34;;;-0.12;86.62
5814;BME280;2933;52.302;8.134;2024-02-28T00:37:38;101181.84;;;-0.35;88.18
5814;BME280;2933;52.302;8.134;2024-02-28T00:42:40;101175.88;;;-0.18;88.28
5814;BME280;2933;52.302;8.134;2024-02-28T00:47:42;101175.66;;;-0.10;87.86
5814;BME280;2933;52.302;8.134;2024-02-28T00:52:45;101177.03;;;-0.58;89.60
5814;BME280;2933;52.302;8.134;2024-02-28T00:57:46;101169.72;;;-0.69;90.70
5814;BME280;2933;52.302;8.134;2024-02-28T01:02:48;101175.00;;;-0.56;90.46
5814;BME280;2933;52.302;8.134;2024-02-28T01:07:51;101175.94;;;-0.31;89.79
5814;BME280;2933;52.302;8.134;2024-02-28T01:12:53;101175.19;;;0.07;89.30
5814;BME280;2933;52.302;8.134;2024-02-28T01:17:55;101164.00;;;0.18;87.88
5814;BME280;2933;52.302;8.134;2024-02-28T01:28:29;101155.09;;;0.06;87.48
5814;BME280;2933;52.302;8.134;2024-02-28T01:33:31;101167.56;;;-0.15;87.72
5814;BME280;2933;52.302;8.134;2024-02-28T01:38:33;101170.38;;;-0.10;86.84
5814;BME280;2933;52.302;8.134;2024-02-28T01:43:36;101173.19;;;0.02;86.95
5814;BME280;2933;52.302;8.134;2024-02-28T01:48:37;101176.22;;;0.06;86.91
5814;BME280;2933;52.302;8.134;2024-02-28T01:53:39;101162.03;;;0.00;86.97
5814;BME280;2933;52.302;8.134;2024-02-28T01:58:43;101162.53;;;-0.23;88.07
5814;BME280;2933;52.302;8.134;2024-02-28T02:03:45;101147.28;;;-0.14;87.95
5814;BME280;2933;52.302;8.134;2024-02-28T02:08:47;101153.91;;;0.02;86.82
5814;BME280;2933;52.302;8.134;2024-02-28T02:13:51;101163.44;;;0.03;87.60
5814;BME280;2933;52.302;8.134;2024-02-28T02:18:53;101157.47;;;-0.31;88.17
5814;BME280;2933;52.302;8.134;2024-02-28T02:23:56;101176.34;;;-0.34;88.27
5814;BME280;2933;52.302;8.134;2024-02-28T02:28:57;101179.19;;;-0.22;88.00
5814;BME280;2933;52.302;8.134;2024-02-28T02:33:59;101172.41;;;-0.12;87.49
5814;BME280;2933;52.302;8.134;2024-02-28T02:39:02;101157.31;;;-0.49;87.94
5814;BME280;2933;52.302;8.134;2024-02-28T02:44:04;101162.53;;;-0.36;89.09
5814;BME280;2933;52.302;8.134;2024-02-28T02:49:06;101161.72;;;-0.30;88.44
5814;BME280;2933;52.302;8.134;2024-02-28T02:54:09;101170.28;;;-0.34;87.72
5814;BME280;2933;52.302;8.134;2024-02-28T02:59:11;101167.03;;;-0.43;88.18
5814;BME280;2933;52.302;8.134;2024-02-28T03:04:13;101167.00;;;-0.30;87.29
5814;BME280;2933;52.302;8.134;2024-02-28T03:09:16;101160.75;;;-0.48;87.14
5814;BME280;2933;52.302;8.134;2024-02-28T03:14:17;101166.03;;;-0.55;88.61
5814;BME280;2933;52.302;8.134;2024-02-28T03:19:22;101168.06;;;-0.44;87.72
5814;BME280;2933;52.302;8.134;2024-02-28T03:24:25;101169.47;;;-0.41;87.30
5814;BME280;2933;52.302;8.134;2024-02-28T03:29:27;101166.44;;;-0.45;87.28
5814;BME280;2933;52.302;8.134;2024-02-28T03:34:29;101164.97;;;-0.28;87.08
5814;BME280;2933;52.302;8.134;2024-02-28T03:39:32;101186.06;;;-0.28;86.47
5814;BME280;2933;52.302;8.134;2024-02-28T03:44:34;101190.97;;;-0.38;86.40
5814;BME280;2933;52.302;8.134;2024-02-28T03:49:35;101193.28;;;-0.74;87.96
5814;BME280;2933;52.302;8.134;2024-02-28T03:54:42;101184.31;;;-0.47;87.28
5814;BME280;2933;52.302;8.134;2024-02-28T03:59:43;101188.53;;;-0.39;86.80
5814;BME280;2933;52.302;8.134;2024-02-28T04:04:45;101187.75;;;-0.53;87.32
5814;BME280;2933;52.302;8.134;2024-02-28T04:09:48;101193.38;;;-0.23;86.50
5814;BME280;2933;52.302;8.134;2024-02-28T04:14:49;101192.56;;;-0.24;86.30
5814;BME280;2933;52.302;8.134;2024-02-28T04:19:51;101200.47;;;-0.24;86.28
5814;BME280;2933;52.302;8.134;2024-02-28T04:24:54;101200.69;;;-0.32;86.75
5814;BME280;2933;52.302;8.134;2024-02-28T04:29:56;101208.84;;;-0.53;87.00
5814;BME280;2933;52.302;8.134;2024-02-28T04:34:58;101211.69;;;-0.35;87.80
5814;BME280;2933;52.302;8.134;2024-02-28T04:40:01;101213.44;;;-0.16;86.52
5814;BME280;2933;52.302;8.134;2024-02-28T04:45:03;101221.56;;;-0.11;86.49
5814;BME280;2933;52.302;8.134;2024-02-28T04:50:05;101222.41;;;-0.23;86.84
5814;BME280;2933;52.302;8.134;2024-02-28T04:55:09;101228.88;;;-0.13;86.99
5814;BME280;2933;52.302;8.134;2024-02-28T05:00:11;101232.75;;;-0.09;86.51
5814;BME280;2933;52.302;8.134;2024-02-28T05:05:13;101236.16;;;-0.02;86.67
5814;BME280;2933;52.302;8.134;2024-02-28T05:10:16;101250.59;;;-0.04;86.79
5814;BME280;2933;52.302;8.134;2024-02-28T05:15:18;101241.19;;;0.20;86.17
5814;BME280;2933;52.302;8.134;2024-02-28T05:20:20;101235.69;;;0.15;86.75
5814;BME280;2933;52.302;8.134;2024-02-28T05:25:23;101244.06;;;0.12;86.43
5814;BME280;2933;52.302;8.134;2024-02-28T05:30:25;101237.53;;;0.14;87.29
5814;BME280;2933;52.302;8.134;2024-02-28T05:35:26;101245.88;;;0.18;87.44
5814;BME280;2933;52.302;8.134;2024-02-28T05:40:29;101247.34;;;-0.06;88.78
5814;BME280;2933;52.302;8.134;2024-02-28T05:45:31;101248.09;;;0.14;88.27
5814;BME280;2933;52.302;8.134;2024-02-28T05:50:33;101244.97;;;0.30;87.72
5814;BME280;2933;52.302;8.134;2024-02-28T05:55:36;101255.78;;;0.22;88.73
5814;BME280;2933;52.302;8.134;2024-02-28T06:00:37;101258.78;;;0.39;88.57
5814;BME280;2933;52.302;8.134;2024-02-28T06:05:39;101274.84;;;0.31;88.43
5814;BME280;2933;52.302;8.134;2024-02-28T06:10:42;101282.91;;;0.49;88.50
5814;BME280;2933;52.302;8.134;2024-02-28T06:15:46;101294.56;;;0.35;88.70
5814;BME280;2933;52.302;8.134;2024-02-28T06:20:51;101291.09;;;0.41;88.68
5814;BME280;2933;52.302;8.134;2024-02-28T06:25:54;101304.06;;;0.42;88.80
5814;BME280;2933;52.302;8.134;2024-02-28T06:30:56;101307.09;;;0.46;88.73
5814;BME280;2933;52.302;8.134;2024-02-28T06:35:57;101313.59;;;0.50;88.89
5814;BME280;2933;52.302;8.134;2024-02-28T06:41:05;101322.09;;;0.65;88.24
5814;BME280;2933;52.302;8.134;2024-02-28T06:46:08;101339.59;;;0.59;88.38
5814;BME280;2933;52.302;8.134;2024-02-28T06:51:09;101334.50;;;0.58;88.80
5814;BME280;2933;52.302;8.134;2024-02-28T06:56:12;101339.38;;;0.67;89.04
5814;BME280;2933;52.302;8.134;2024-02-28T07:01:14;101345.66;;;0.73;88.80
5814;BME280;2933;52.302;8.134;2024-02-28T07:06:16;101340.06;;;0.87;88.29
5814;BME280;2933;52.302;8.134;2024-02-28T07:11:19;101346.41;;;0.80;89.17
5814;BME280;2933;52.302;8.134;2024-02-28T07:16:21;101355.16;;;0.87;88.12
5814;BME280;2933;52.302;8.134;2024-02-28T07:21:23;101348.47;;;0.78;88.14
5814;BME280;2933;52.302;8.134;2024-02-28T07:26:26;101356.59;;;0.83;88.45
5814;BME280;2933;52.302;8.134;2024-02-28T07:31:28;101353.50;;;0.86;88.25
5814;BME280;2933;52.302;8.134;2024-02-28T07:36:29;101359.22;;;0.83;88.92
5814;BME280;2933;52.302;8.134;2024-02-28T07:41:32;101368.50;;;0.99;88.36
5814;BME280;2933;52.302;8.134;2024-02-28T07:46:34;101361.41;;;0.99;88.07
5814;BME280;2933;52.302;8.134;2024-02-28T07:51:36;101374.44;;;0.87;88.64
5814;BME280;2933;52.302;8.134;2024-02-28T07:56:39;101384.00;;;0.95;88.74
5814;BME280;2933;52.302;8.134;2024-02-28T08:01:41;101377.06;;;0.94;89.23
5814;BME280;2933;52.302;8.134;2024-02-28T08:06:43;101381.03;;;1.16;89.08
5814;BME280;2933;52.302;8.134;2024-02-28T08:11:46;101393.25;;;1.17;89.05
5814;BME280;2933;52.302;8.134;2024-02-28T08:16:47;101400.06;;;1.31;89.02
5814;BME280;2933;52.302;8.134;2024-02-28T08:21:49;101390.28;;;1.38;89.05
5814;BME280;2933;52.302;8.134;2024-02-28T08:26:52;101395.59;;;1.32;89.16
5814;BME280;2933;52.302;8.134;2024-02-28T08:31:54;101397.19;;;1.39;89.47
5814;BME280;2933;52.302;8.134;2024-02-28T08:36:56;101402.41;;;1.52;89.37
5814;BME280;2933;52.302;8.134;2024-02-28T08:41:59;101403.16;;;1.59;89.33
5814;BME280;2933;52.302;8.134;2024-02-28T08:47:00;101402.91;;;1.67;88.55
5814;BME280;2933;52.302;8.134;2024-02-28T08:52:02;101402.22;;;1.79;88.61
5814;BME280;2933;52.302;8.134;2024-02-28T08:57:06;101418.88;;;1.86;88.34
5814;BME280;2933;52.302;8.134;2024-02-28T09:02:12;101409.09;;;1.86;88.44
5814;BME280;2933;52.302;8.134;2024-02-28T09:07:13;101413.91;;;1.96;87.85
5814;BME280;2933;52.302;8.134;2024-02-28T09:12:20;101419.56;;;1.99;87.60
5814;BME280;2933;52.302;8.134;2024-02-28T09:17:22;101419.13;;;2.09;87.98
5814;BME280;2933;52.302;8.134;2024-02-28T09:22:24;101419.56;;;1.99;88.00
5814;BME280;2933;52.302;8.134;2024-02-28T09:27:27;101423.53;;;2.15;87.55
5814;BME280;2933;52.302;8.134;2024-02-28T09:32:28;101423.88;;;2.43;87.90
5814;BME280;2933;52.302;8.134;2024-02-28T09:37:30;101419.06;;;2.58;86.92
5814;BME280;2933;52.302;8.134;2024-02-28T09:42:34;101429.09;;;2.74;87.86
5814;BME280;2933;52.302;8.134;2024-02-28T09:47:35;101429.28;;;2.91;86.60
5814;BME280;2933;52.302;8.134;2024-02-28T09:52:37;101413.44;;;3.02;86.67
5814;BME280;2933;52.302;8.134;2024-02-28T09:57:41;101419.31;;;3.22;85.32
5814;BME280;2933;52.302;8.134;2024-02-28T10:02:45;101413.28;;;3.15;86.46
5814;BME280;2933;52.302;8.134;2024-02-28T10:07:49;101410.59;;;3.33;85.54
5814;BME280;2933;52.302;8.134;2024-02-28T10:12:52;101403.88;;;3.31;85.03
5814;BME280;2933;52.302;8.134;2024-02-28T10:17:54;101410.59;;;3.33;86.26
5814;BME280;2933;52.302;8.134;2024-02-28T10:22:56;101399.66;;;3.83;85.46
5814;BME280;2933;52.302;8.134;2024-02-28T10:28:00;101403.97;;;4.18;84.03
5814;BME280;2933;52.302;8.134;2024-02-28T10:33:02;101405.72;;;4.24;83.85
5814;BME280;2933;52.302;8.134;2024-02-28T10:38:04;101397.72;;;4.36;82.65
5814;BME280;2933;52.302;8.134;2024-02-28T10:43:09;101409.22;;;4.88;83.19
5814;BME280;2933;52.302;8.134;2024-02-28T10:48:11;101426.31;;;5.03;79.73
5814;BME280;2933;52.302;8.134;2024-02-28T10:53:16;101429.34;;;4.95;79.34
5814;BME280;2933;52.302;8.134;2024-02-28T10:58:24;101439.09;;;4.78;80.53
5814;BME280;2933;52.302;8.134;2024-02-28T11:03:26;101436.22;;;4.57;81.48
5814;BME280;2933;52.302;8.134;2024-02-28T11:08:29;101441.09;;;4.48;82.18
5814;BME280;2933;52.302;8.134;2024-02-28T11:13:33;101445.25;;;4.56;81.98
5814;BME280;2933;52.302;8.134;2024-02-28T11:18:36;101440.28;;;4.59;82.23
5814;BME280;2933;52.302;8.134;2024-02-28T11:23:49;101448.38;;;4.53;82.18
5814;BME280;2933;52.302;8.134;2024-02-28T11:28:52;101452.78;;;4.47;81.68
5814;BME280;2933;52.302;8.134;2024-02-28T11:33:53;101446.06;;;4.56;82.65
5814;BME280;2933;52.302;8.134;2024-02-28T11:38:56;101436.34;;;4.62;81.95
5814;BME280;2933;52.302;8.134;2024-02-28T11:43:59;101435.06;;;4.64;81.87
5814;BME280;2933;52.302;8.134;2024-02-28T11:49:01;101435.28;;;4.74;82.07
5814;BME280;2933;52.302;8.134;2024-02-28T11:54:03;101436.75;;;4.93;81.95
5814;BME280;2933;52.302;8.134;2024-02-28T11:59:08;101420.78;;;4.93;82.14
5814;BME280;2933;52.302;8.134;2024-02-28T12:04:13;101414.53;;;4.99;82.01
5814;BME280;2933;52.302;8.134;2024-02-28T12:09:14;101414.44;;;4.94;82.09
5814;BME280;2933;52.302;8.134;2024-02-28T12:14:17;101406.59;;;5.16;81.60
5814;BME280;2933;52.302;8.134;2024-02-28T12:19:19;101402.88;;;5.29;81.69
5814;BME280;2933;52.302;8.134;2024-02-28T12:24:21;101394.69;;;5.47;81.47
5814;BME280;2933;52.302;8.134;2024-02-28T12:29:24;101391.28;;;5.51;80.63
5814;BME280;2933;52.302;8.134;2024-02-28T12:34:26;101379.66;;;5.41;80.94
5814;BME280;2933;52.302;8.134;2024-02-28T12:39:27;101382.66;;;5.44;81.01
5814;BME280;2933;52.302;8.134;2024-02-28T12:44:31;101380.63;;;5.51;80.80
5814;BME280;2933;52.302;8.134;2024-02-28T12:49:33;101374.44;;;5.62;80.30
5814;BME280;2933;52.302;8.134;2024-02-28T12:54:34;101368.75;;;5.59;80.54
5814;BME280;2933;52.302;8.134;2024-02-28T12:59:37;101359.81;;;5.65;80.45
5814;BME280;2933;52.302;8.134;2024-02-28T13:04:40;101359.81;;;5.48;80.67
5814;BME280;2933;52.302;8.134;2024-02-28T13:09:42;101363.28;;;5.49;80.23
5814;BME280;2933;52.302;8.134;2024-02-28T13:14:45;101365.44;;;5.52;80.77
5814;BME280;2933;52.302;8.134;2024-02-28T13:19:47;101368.22;;;5.57;81.20
5814;BME280;2933;52.302;8.134;2024-02-28T13:24:49;101358.22;;;5.64;80.65
5814;BME280;2933;52.302;8.134;2024-02-28T13:29:52;101353.97;;;5.51;80.82
5814;BME280;2933;52.302;8.134;2024-02-28T13:34:53;101352.69;;;5.54;80.75
5814;BME280;2933;52.302;8.134;2024-02-28T13:39:55;101354.16;;;5.45;81.11
5814;BME280;2933;52.302;8.134;2024-02-28T13:44:58;101344.25;;;5.57;80.65
5814;BME280;2933;52.302;8.134;2024-02-28T13:50:00;101346.25;;;5.50;81.34
5814;BME280;2933;52.302;8.134;2024-02-28T13:55:01;101345.13;;;5.62;80.99
5814;BME280;2933;52.302;8.134;2024-02-28T14:00:07;101340.44;;;5.69;80.13
5814;BME280;2933;52.302;8.134;2024-02-28T14:05:11;101344.94;;;5.69;80.23
5814;BME280;2933;52.302;8.134;2024-02-28T14:10:13;101338.16;;;5.61;79.94
5814;BME280;2933;52.302;8.134;2024-02-28T14:15:18;101339.81;;;5.62;80.15
5814;BME280;2933;52.302;8.134;2024-02-28T14:20:19;101335.09;;;5.69;80.67
5814;BME280;2933;52.302;8.134;2024-02-28T14:25:22;101332.13;;;5.66;80.47
5814;BME280;2933;52.302;8.134;2024-02-28T14:30:25;101338.84;;;5.68;80.14
5814;BME280;2933;52.302;8.134;2024-02-28T14:35:26;101332.53;;;5.74;80.87
5814;BME280;2933;52.302;8.134;2024-02-28T14:40:28;101335.22;;;5.91;79.27
5814;BME280;2933;52.302;8.134;2024-02-28T14:45:31;101327.72;;;5.88;79.10
5814;BME280;2933;52.302;8.134;2024-02-28T14:50:33;101319.78;;;5.93;79.35
5814;BME280;2933;52.302;8.134;2024-02-28T14:55:34;101322.69;;;5.91;78.44
5814;BME280;2933;52.302;8.134;2024-02-28T15:00:37;101320.91;;;5.80;78.09
5814;BME280;2933;52.302;8.134;2024-02-28T15:05:39;101314.25;;;5.83;78.15
5814;BME280;2933;52.302;8.134;2024-02-28T15:10:43;101307.97;;;5.89;77.84
5814;BME280;2933;52.302;8.134;2024-02-28T15:15:46;101308.50;;;5.86;78.18
5814;BME280;2933;52.302;8.134;2024-02-28T15:20:48;101308.66;;;5.96;76.86
5814;BME280;2933;52.302;8.134;2024-02-28T15:25:49;101304.66;;;5.82;77.59
5814;BME280;2933;52.302;8.134;2024-02-28T15:30:55;101304.91;;;5.80;78.27
5814;BME280;2933;52.302;8.134;2024-02-28T15:35:58;101302.66;;;5.72;78.95
5814;BME280;2933;52.302;8.134;2024-02-28T15:41:00;101296.56;;;5.77;78.77
5814;BME280;2933;52.302;8.134;2024-02-28T15:46:03;101291.94;;;5.84;78.51
5814;BME280;2933;52.302;8.134;2024-02-28T15:51:05;101294.91;;;5.87;78.05
5814;BME280;2933;52.302;8.134;2024-02-28T15:56:07;101293.78;;;5.83;78.75
5814;BME280;2933;52.302;8.134;2024-02-28T16:01:10;101288.91;;;5.64;79.21
5814;BME280;2933;52.302;8.134;2024-02-28T16:06:13;101278.72;;;5.61;79.63
5814;BME280;2933;52.302;8.134;2024-02-28T16:11:15;101281.97;;;5.63;79.21
5814;BME280;2933;52.302;8.134;2024-02-28T16:16:18;101294.25;;;5.47;79.76
5814;BME280;2933;52.302;8.134;2024-02-28T16:21:19;101287.31;;;5.46;79.96
5814;BME280;2933;52.302;8.134;2024-02-28T16:26:21;101293.59;;;5.40;79.99
5814;BME280;2933;52.302;8.134;2024-02-28T16:31:25;101291.66;;;5.36;80.14
5814;BME280;2933;52.302;8.134;2024-02-28T16:36:27;101281.97;;;5.30;80.84
5814;BME280;2933;52.302;8.134;2024-02-28T16:41:28;101278.09;;;5.20;80.55
5814;BME280;2933;52.302;8.134;2024-02-28T16:46:32;101276.78;;;5.06;81.41
5814;BME280;2933;52.302;8.134;2024-02-28T16:51:33;101283.06;;;5.00;81.53
5814;BME280;2933;52.302;8.134;2024-02-28T16:56:35;101261.38;;;4.80;82.93
5814;BME280;2933;52.302;8.134;2024-02-28T17:01:38;101260.91;;;4.83;82.78
5814;BME280;2933;52.302;8.134;2024-02-28T17:06:39;101258.72;;;4.80;83.08
5814;BME280;2933;52.302;8.134;2024-02-28T17:11:41;101254.50;;;4.68;83.30
5814;BME280;2933;52.302;8.134;2024-02-28T17:16:44;101248.38;;;4.67;83.03
5814;BME280;2933;52.302;8.134;2024-02-28T17:21:46;101244.59;;;4.63;82.88
5814;BME280;2933;52.302;8.134;2024-02-28T17:26:47;101252.78;;;4.62;82.98
5814;BME280;2933;52.302;8.134;2024-02-28T17:31:50;101243.25;;;4.49;83.79
5814;BME280;2933;52.302;8.134;2024-02-28T17:36:53;101242.66;;;4.47;84.30
5814;BME280;2933;52.302;8.134;2024-02-28T17:41:55;101240.47;;;4.44;83.77
5814;BME280;2933;52.302;8.134;2024-02-28T17:47:01;101243.56;;;4.13;84.01
5814;BME280;2933;52.302;8.134;2024-02-28T17:52:03;101245.84;;;4.21;84.52
5814;BME280;2933;52.302;8.134;2024-02-28T17:57:08;101251.16;;;4.21;83.47
5814;BME280;2933;52.302;8.134;2024-02-28T18:02:12;101255.34;;;3.94;83.58
5814;BME280;2933;52.302;8.134;2024-02-28T18:07:14;101244.38;;;3.90;83.22
5814;BME280;2933;52.302;8.134;2024-02-28T18:12:17;101249.38;;;3.87;84.05
5814;BME280;2933;52.302;8.134;2024-02-28T18:17:20;101245.56;;;3.83;83.77
5814;BME280;2933;52.302;8.134;2024-02-28T18:22:23;101236.44;;;3.56;83.54
5814;BME280;2933;52.302;8.134;2024-02-28T18:27:27;101225.47;;;3.75;84.82
5814;BME280;2933;52.302;8.134;2024-02-28T18:32:30;101231.94;;;3.79;84.96
5814;BME280;2933;52.302;8.134;2024-02-28T18:37:32;101222.81;;;3.64;84.02
5814;BME280;2933;52.302;8.134;2024-02-28T18:42:34;101207.47;;;3.66;84.90
5814;BME280;2933;52.302;8.134;2024-02-28T18:47:38;101203.19;;;3.65;83.72
5814;BME280;2933;52.302;8.134;2024-02-28T18:52:39;101222.00;;;3.40;83.69
5814;BME280;2933;52.302;8.134;2024-02-28T18:57:41;101203.75;;;3.32;84.71
5814;BME280;2933;52.302;8.134;2024-02-28T19:02:45;101198.47;;;3.32;84.96
5814;BME280;2933;52.302;8.134;2024-02-28T19:07:46;101195.91;;;3.25;85.11
5814;BME280;2933;52.302;8.134;2024-02-28T19:12:50;101194.06;;;3.37;85.27
5814;BME280;2933;52.302;8.134;2024-02-28T19:17:53;101201.69;;;3.34;84.11
5814;BME280;2933;52.302;8.134;2024-02-28T19:22:55;101195.56;;;3.22;83.66
5814;BME280;2933;52.302;8.134;2024-02-28T19:27:58;101201.06;;;3.20;84.50
5814;BME280;2933;52.302;8.134;2024-02-28T19:33:01;101196.94;;;3.24;84.88
5814;BME280;2933;52.302;8.134;2024-02-28T19:38:04;101196.25;;;3.17;83.76
5814;BME280;2933;52.302;8.134;2024-02-28T19:43:06;101198.66;;;3.19;84.20
5814;BME280;2933;52.302;8.134;2024-02-28T19:48:09;101182.03;;;3.00;84.11
5814;BME280;2933;52.302;8.134;2024-02-28T19:53:11;101179.72;;;2.92;84.04
5814;BME280;2933;52.302;8.134;2024-02-28T19:58:13;101191.28;;;2.68;82.47
5814;BME280;2933;52.302;8.134;2024-02-28T20:03:16;101191.19;;;2.75;83.22
5814;BME280;2933;52.302;8.134;2024-02-28T20:08:19;101180.81;;;2.73;82.31
5814;BME280;2933;52.302;8.134;2024-02-28T20:13:20;101181.84;;;2.72;83.75
5814;BME280;2933;52.302;8.134;2024-02-28T20:18:23;101171.88;;;2.56;82.69
5814;BME280;2933;52.302;8.134;2024-02-28T20:23:27;101171.91;;;2.68;83.40
5814;BME280;2933;52.302;8.134;2024-02-28T20:28:29;101176.22;;;2.80;82.94
5814;BME280;2933;52.302;8.134;2024-02-28T20:33:32;101170.44;;;2.72;85.20
5814;BME280;2933;52.302;8.134;2024-02-28T20:38:33;101156.16;;;2.84;84.53
5814;BME280;2933;52.302;8.134;2024-02-28T20:43:35;101159.16;;;2.88;86.19
5814;BME280;2933;52.302;8.134;2024-02-28T20:48:38;101153.78;;;2.94;84.97
5814;BME280;2933;52.302;8.134;2024-02-28T20:53:41;101161.38;;;3.02;84.86
5814;BME280;2933;52.302;8.134;2024-02-28T20:58:44;101151.22;;;2.99;85.10
5814;BME280;2933;52.302;8.134;2024-02-28T21:03:48;101149.22;;;2.83;85.06
5814;BME280;2933;52.302;8.134;2024-02-28T21:08:52;101143.34;;;2.81;85.17
5814;BME280;2933;52.302;8.134;2024-02-28T21:13:58;101132.66;;;2.88;84.35
5814;BME280;2933;52.302;8.134;2024-02-28T21:19:02;101137.94;;;2.88;85.79
5814;BME280;2933;52.302;8.134;2024-02-28T21:24:04;101141.09;;;2.96;85.68
5814;BME280;2933;52.302;8.134;2024-02-28T21:29:08;101142.44;;;2.99;85.18
5814;BME280;2933;52.302;8.134;2024-02-28T21:34:11;101134.72;;;2.97;86.30
5814;BME280;2933;52.302;8.134;2024-02-28T21:39:13;101122.03;;;2.99;85.76
5814;BME280;2933;52.302;8.134;2024-02-28T21:44:15;101115.91;;;3.10;86.04
5814;BME280;2933;52.302;8.134;2024-02-28T21:49:18;101106.44;;;3.14;85.71
5814;BME280;2933;52.302;8.134;2024-02-28T21:54:20;101103.38;;;3.06;87.06
5814;BME280;2933;52.302;8.134;2024-02-28T21:59:22;101091.00;;;3.23;86.76
5814;BME280;2933;52.302;8.134;2024-02-28T22:04:25;101082.00;;;3.24;86.16
5814;BME280;2933;52.302;8.134;2024-02-28T22:09:26;101080.13;;;3.24;86.30
5814;BME280;2933;52.302;8.134;2024-02-28T22:14:37;101068.16;;;3.33;86.31
5814;BME280;2933;52.302;8.134;2024-02-28T22:19:40;101063.16;;;3.37;86.56
5814;BME280;2933;52.302;8.134;2024-02-28T22:24:42;101055.22;;;3.37;85.91
5814;BME280;2933;52.302;8.134;2024-02-28T22:29:43;101060.97;;;3.45;86.32
5814;BME280;2933;52.302;8.134;2024-02-28T22:34:47;101049.88;;;3.48;86.52
5814;BME280;2933;52.302;8.134;2024-02-28T22:39:48;101042.97;;;3.47;86.18
5814;BME280;2933;52.302;8.134;2024-02-28T22:44:50;101035.31;;;3.51;84.59
5814;BME280;2933;52.302;8.134;2024-02-28T22:49:53;101038.69;;;3.35;85.12
5814;BME280;2933;52.302;8.134;2024-02-28T22:54:55;101035.94;;;3.18;84.44
5814;BME280;2933;52.302;8.134;2024-02-28T22:59:57;101026.88;;;2.91;84.18
5814;BME280;2933;52.302;8.134;2024-02-28T23:05:00;101026.41;;;2.83;84.34
5814;BME280;2933;52.302;8.134;2024-02-28T23:10:02;101016.84;;;2.70;84.71
5814;BME280;2933;52.302;8.134;2024-02-28T23:15:05;101015.69;;;2.54;84.23
5814;BME280;2933;52.302;8.134;2024-02-28T23:20:11;101012.91;;;2.49;84.43
5814;BME280;2933;52.302;8.134;2024-02-28T23:25:13;101009.09;;;2.34;84.32
5814;BME280;2933;52.302;8.134;2024-02-28T23:30:14;101012.84;;;2.15;83.86
5814;BME280;2933;52.302;8.134;2024-02-28T23:35:18;101008.94;;;2.17;84.56
5814;BME280;2933;52.302;8.134;2024-02-28T23:40:19;101004.78;;;2.10;83.94
5814;BME280;2933;52.302;8.134;2024-02-28T23:45:21;100996.13;;;2.03;83.77
5814;BME280;2933;52.302;8.134;2024-02-28T23:50:25;100988.63;;;2.00;83.69
5814;BME280;2933;52.302;8.134;2024-02-28T23:55:27;100984.28;;;1.75;84.14
